createdAt,value
2018-10-09T00:02:08.430Z,12.50
2018-10-09T00:04:37.967Z,12.49
2018-10-09T00:07:07.481Z,12.49
2018-10-09T00:09:37.062Z,12.46
2018-10-09T00:12:06.833Z,12.44
2018-10-09T00:14:36.581Z,12.40
2018-10-09T00:17:06.134Z,12.37
2018-10-09T00:19:35.781Z,12.28
2018-10-09T00:22:05.325Z,12.26
2018-10-09T00:24:35.035Z,12.22
2018-10-09T00:27:04.749Z,12.19
2018-10-09T00:29:35.001Z,12.14
2018-10-09T00:32:04.619Z,12.04
2018-10-09T00:34:34.210Z,11.94
2018-10-09T00:37:03.802Z,11.84
2018-10-09T00:39:33.403Z,11.70
2018-10-09T00:42:03.012Z,11.61
2018-10-09T00:44:32.506Z,11.56
2018-10-09T00:47:01.909Z,11.56
2018-10-09T00:49:31.402Z,11.50
2018-10-09T00:52:00.921Z,11.44
2018-10-09T00:54:30.531Z,11.35
2018-10-09T00:56:59.945Z,11.26
2018-10-09T00:59:30.039Z,11.18
2018-10-09T01:01:59.582Z,11.06
2018-10-09T01:04:29.959Z,10.99
2018-10-09T01:06:59.600Z,10.89
2018-10-09T01:09:29.408Z,10.82
2018-10-09T01:11:59.005Z,10.73
2018-10-09T01:14:28.604Z,10.69
2018-10-09T01:16:58.010Z,10.61
2018-10-09T01:19:27.493Z,10.47
2018-10-09T01:21:56.899Z,10.36
2018-10-09T01:24:26.521Z,10.24
2018-10-09T01:26:55.963Z,10.13
2018-10-09T01:29:25.525Z,10.05
2018-10-09T01:31:55.386Z,10.02
2018-10-09T01:34:25.367Z,10.04
2018-10-09T01:36:54.824Z,10.03
2018-10-09T01:39:24.263Z,9.98
2018-10-09T01:41:53.724Z,9.95
2018-10-09T01:44:23.327Z,9.91
2018-10-09T01:46:52.901Z,9.89
2018-10-09T01:49:22.432Z,9.94
2018-10-09T01:51:51.946Z,9.94
2018-10-09T01:54:21.725Z,9.93
2018-10-09T01:56:51.242Z,9.95
2018-10-09T01:59:20.759Z,9.96
2018-10-09T02:01:50.207Z,9.94
2018-10-09T02:04:19.946Z,9.88
2018-10-09T02:06:49.409Z,9.82
2018-10-09T02:09:18.922Z,9.86
2018-10-09T02:11:48.580Z,9.86
2018-10-09T02:14:18.260Z,9.87
2018-10-09T02:16:47.821Z,9.90
2018-10-09T02:19:17.285Z,9.98
2018-10-09T02:21:47.408Z,10.06
2018-10-09T02:24:16.860Z,10.07
2018-10-09T02:26:46.284Z,9.99
2018-10-09T02:29:15.844Z,9.85
2018-10-09T02:31:45.696Z,9.77
2018-10-09T02:34:15.287Z,9.71
2018-10-09T02:36:44.770Z,9.66
2018-10-09T02:39:14.356Z,9.63
2018-10-09T02:41:43.885Z,9.58
2018-10-09T02:44:13.392Z,9.59
2018-10-09T02:46:43.008Z,9.59
2018-10-09T02:49:12.750Z,9.61
2018-10-09T02:51:42.193Z,9.65
2018-10-09T02:54:11.714Z,9.66
2018-10-09T02:56:41.404Z,9.68
2018-10-09T02:59:10.922Z,9.65
2018-10-09T03:01:40.599Z,9.59
2018-10-09T03:04:10.353Z,9.56
2018-10-09T03:06:39.972Z,9.47
2018-10-09T03:09:10.352Z,9.39
2018-10-09T03:11:39.681Z,9.25
2018-10-09T03:14:09.282Z,9.17
2018-10-09T03:16:38.780Z,9.10
2018-10-09T03:19:08.560Z,9.05
2018-10-09T03:21:38.001Z,9.00
2018-10-09T03:24:08.419Z,9.02
2018-10-09T03:26:38.020Z,8.95
2018-10-09T03:29:07.941Z,8.88
2018-10-09T03:31:37.708Z,8.80
2018-10-09T03:34:07.276Z,8.80
2018-10-09T03:36:36.925Z,8.85
2018-10-09T03:39:08.549Z,8.93
2018-10-09T03:41:38.019Z,8.97
2018-10-09T03:44:07.460Z,8.96
2018-10-09T03:46:36.902Z,8.95
2018-10-09T03:49:06.668Z,8.91
2018-10-09T03:51:36.750Z,8.85
2018-10-09T03:54:06.268Z,8.80
2018-10-09T03:56:35.959Z,8.79
2018-10-09T03:59:06.023Z,8.81
2018-10-09T04:01:35.779Z,8.83
2018-10-09T04:04:05.303Z,8.87
2018-10-09T04:06:35.005Z,8.93
2018-10-09T04:09:05.832Z,8.84
2018-10-09T04:11:35.231Z,8.78
2018-10-09T04:14:04.908Z,8.76
2018-10-09T04:16:34.524Z,8.75
2018-10-09T04:19:05.070Z,8.68
2018-10-09T04:21:34.667Z,8.64
2018-10-09T04:24:05.531Z,8.60
2018-10-09T04:26:35.154Z,8.59
2018-10-09T04:29:04.747Z,8.56
2018-10-09T04:31:34.925Z,8.55
2018-10-09T04:34:04.572Z,8.56
2018-10-09T04:36:34.123Z,8.54
2018-10-09T04:39:04.451Z,8.47
2018-10-09T04:41:34.183Z,8.39
2018-10-09T04:44:03.944Z,8.42
2018-10-09T04:46:34.031Z,8.46
2018-10-09T04:49:03.469Z,8.48
2018-10-09T04:51:33.623Z,8.54
2018-10-09T04:54:03.311Z,8.60
2018-10-09T04:56:32.837Z,8.60
2018-10-09T04:59:02.499Z,8.57
2018-10-09T05:01:31.940Z,8.54
2018-10-09T05:04:01.388Z,8.55
2018-10-09T05:06:30.881Z,8.55
2018-10-09T05:09:00.645Z,8.55
2018-10-09T05:11:30.316Z,8.53
2018-10-09T05:13:59.817Z,8.54
2018-10-09T05:16:29.395Z,8.52
2018-10-09T05:18:58.990Z,8.49
2018-10-09T05:21:28.769Z,8.47
2018-10-09T05:23:58.189Z,8.44
2018-10-09T05:26:27.725Z,8.41
2018-10-09T05:28:57.174Z,8.40
2018-10-09T05:31:26.785Z,8.42
2018-10-09T05:33:56.351Z,8.43
2018-10-09T05:36:25.784Z,8.43
2018-10-09T05:38:55.161Z,8.47
2018-10-09T05:41:24.604Z,8.50
2018-10-09T05:43:54.064Z,8.55
2018-10-09T05:46:23.789Z,8.62
2018-10-09T05:48:53.213Z,8.68
2018-10-09T05:51:22.743Z,8.74
2018-10-09T05:53:52.431Z,8.83
2018-10-09T05:56:22.192Z,8.91
2018-10-09T05:58:51.624Z,8.97
2018-10-09T06:01:21.065Z,9.03
2018-10-09T06:03:50.629Z,9.11
2018-10-09T06:06:20.122Z,9.17
2018-10-09T06:08:49.535Z,9.28
2018-10-09T06:11:19.165Z,9.46
2018-10-09T06:13:48.773Z,9.65
2018-10-09T06:16:18.391Z,9.82
2018-10-09T06:18:47.864Z,9.93
2018-10-09T06:21:17.404Z,10.00
2018-10-09T06:23:46.990Z,10.10
2018-10-09T06:26:16.748Z,10.23
2018-10-09T06:28:46.829Z,10.36
2018-10-09T06:31:16.282Z,10.51
2018-10-09T06:33:45.803Z,10.63
2018-10-09T06:36:15.475Z,10.78
2018-10-09T06:38:44.924Z,10.93
2018-10-09T06:41:14.378Z,11.12
2018-10-09T06:43:43.984Z,11.28
2018-10-09T06:46:20.825Z,11.45
2018-10-09T06:48:50.833Z,11.60
2018-10-09T06:51:20.443Z,11.83
2018-10-09T06:53:50.225Z,12.01
2018-10-09T06:56:19.812Z,12.22
2018-10-09T06:58:49.364Z,12.39
2018-10-09T07:01:19.151Z,12.53
2018-10-09T07:03:48.610Z,12.89
2018-10-09T07:06:18.369Z,13.01
2018-10-09T07:08:47.926Z,13.12
2018-10-09T07:11:17.668Z,13.18
2018-10-09T07:13:47.149Z,13.27
2018-10-09T07:16:16.763Z,13.40
2018-10-09T07:18:46.199Z,13.60
2018-10-09T07:21:15.806Z,13.77
2018-10-09T07:23:45.417Z,13.94
2018-10-09T07:26:14.851Z,14.22
2018-10-09T07:28:44.272Z,14.39
2018-10-09T07:31:14.430Z,14.54
2018-10-09T07:33:43.785Z,14.67
2018-10-09T07:36:13.551Z,14.81
2018-10-09T07:38:43.066Z,14.90
2018-10-09T07:41:13.379Z,14.95
2018-10-09T07:43:42.779Z,15.01
2018-10-09T07:46:12.379Z,15.10
2018-10-09T07:48:42.043Z,15.14
2018-10-09T07:51:11.473Z,15.26
2018-10-09T07:53:40.910Z,15.40
2018-10-09T07:56:10.683Z,15.54
2018-10-09T07:58:40.230Z,15.60
2018-10-09T08:01:09.848Z,15.71
2018-10-09T08:03:39.305Z,15.78
2018-10-09T08:06:08.854Z,16.03
2018-10-09T08:08:38.235Z,16.14
2018-10-09T08:11:07.831Z,16.19
2018-10-09T08:13:37.399Z,16.48
2018-10-09T08:16:07.056Z,16.74
2018-10-09T08:18:36.607Z,16.98
2018-10-09T08:21:06.037Z,17.03
2018-10-09T08:23:35.460Z,17.04
2018-10-09T08:26:04.895Z,17.13
2018-10-09T08:28:34.526Z,17.25
2018-10-09T08:31:04.121Z,17.37
2018-10-09T08:33:33.652Z,17.58
2018-10-09T08:36:03.161Z,17.67
2018-10-09T08:38:32.569Z,17.71
2018-10-09T08:41:02.068Z,17.86
2018-10-09T08:43:31.605Z,18.09
2018-10-09T08:46:01.180Z,18.26
2018-10-09T08:48:30.839Z,18.52
2018-10-09T08:51:01.010Z,18.75
2018-10-09T08:53:30.584Z,18.91
2018-10-09T08:56:00.207Z,19.03
2018-10-09T08:58:30.207Z,19.18
2018-10-09T09:00:59.946Z,19.36
2018-10-09T09:03:29.641Z,19.69
2018-10-09T09:05:59.292Z,19.86
2018-10-09T09:08:28.707Z,19.91
2018-10-09T09:10:58.192Z,20.06
2018-10-09T09:13:27.792Z,20.20
2018-10-09T09:15:57.238Z,20.27
2018-10-09T09:18:26.693Z,20.23
2018-10-09T09:20:56.142Z,20.27
2018-10-09T09:23:25.560Z,20.10
2018-10-09T09:25:55.020Z,20.30
2018-10-09T09:28:24.423Z,20.63
2018-10-09T09:30:54.244Z,20.99
2018-10-09T09:33:23.599Z,21.01
2018-10-09T09:35:53.411Z,20.86
2018-10-09T09:38:22.838Z,20.79
2018-10-09T09:40:52.654Z,20.95
2018-10-09T09:43:22.136Z,21.30
2018-10-09T09:45:51.826Z,21.53
2018-10-09T09:48:21.572Z,21.75
2018-10-09T09:50:51.004Z,21.57
2018-10-09T09:53:20.607Z,21.69
2018-10-09T09:55:50.211Z,21.73
2018-10-09T09:58:19.759Z,21.72
2018-10-09T10:00:56.496Z,21.80
2018-10-09T10:03:26.889Z,21.95
2018-10-09T10:05:56.283Z,22.15
2018-10-09T10:08:25.774Z,22.09
2018-10-09T10:10:55.254Z,21.97
2018-10-09T10:13:24.703Z,21.61
2018-10-09T10:15:55.711Z,21.46
2018-10-09T10:18:25.667Z,21.33
2018-10-09T10:20:56.110Z,21.40
2018-10-09T10:23:25.731Z,21.41
2018-10-09T10:25:56.197Z,21.30
2018-10-09T10:28:25.802Z,21.23
2018-10-09T10:30:55.981Z,21.19
2018-10-09T10:33:25.562Z,21.16
2018-10-09T10:35:55.004Z,20.99
2018-10-09T10:38:24.466Z,21.17
2018-10-09T10:40:54.214Z,21.45
2018-10-09T10:43:23.945Z,21.65
2018-10-09T10:45:53.504Z,21.58
2018-10-09T10:48:23.182Z,21.60
2018-10-09T10:50:52.612Z,21.72
2018-10-09T10:53:22.263Z,21.94
2018-10-09T10:55:51.806Z,22.23
2018-10-09T10:58:21.424Z,22.41
2018-10-09T11:00:51.001Z,22.45
2018-10-09T11:03:20.531Z,22.41
2018-10-09T11:05:50.200Z,22.33
2018-10-09T11:08:20.782Z,22.39
2018-10-09T11:10:50.376Z,22.24
2018-10-09T11:13:20.615Z,22.04
2018-10-09T11:15:50.195Z,21.92
2018-10-09T11:18:19.829Z,21.84
2018-10-09T11:20:49.444Z,21.76
2018-10-09T11:23:19.185Z,21.74
2018-10-09T11:25:48.593Z,21.73
2018-10-09T11:28:18.381Z,21.68
2018-10-09T11:30:47.895Z,21.58
2018-10-09T11:33:17.581Z,21.65
2018-10-09T11:35:47.096Z,21.75
2018-10-09T11:38:17.085Z,21.96
2018-10-09T11:40:46.841Z,22.17
2018-10-09T11:43:16.336Z,22.35
2018-10-09T11:45:45.732Z,22.35
2018-10-09T11:48:15.481Z,22.36
2018-10-09T11:50:45.270Z,22.57
2018-10-09T11:53:15.007Z,23.07
2018-10-09T11:55:44.496Z,23.18
2018-10-09T11:58:14.214Z,23.22
2018-10-09T12:00:45.184Z,23.27
2018-10-09T12:03:14.969Z,23.27
2018-10-09T12:05:44.386Z,23.32
2018-10-09T12:08:14.075Z,23.52
2018-10-09T12:10:43.713Z,23.49
2018-10-09T12:13:13.406Z,23.64
2018-10-09T12:15:43.175Z,23.62
2018-10-09T12:18:12.892Z,23.44
2018-10-09T12:20:42.516Z,23.44
2018-10-09T12:23:12.133Z,23.50
2018-10-09T12:25:41.659Z,23.44
2018-10-09T12:28:11.291Z,23.54
2018-10-09T12:30:41.090Z,23.69
2018-10-09T12:33:10.662Z,23.55
2018-10-09T12:35:40.080Z,23.34
2018-10-09T12:38:09.766Z,23.22
2018-10-09T12:40:39.357Z,23.17
2018-10-09T12:43:09.030Z,23.12
2018-10-09T12:45:38.712Z,23.03
2018-10-09T12:48:08.487Z,22.94
2018-10-09T12:50:38.222Z,22.88
2018-10-09T12:53:07.789Z,22.79
2018-10-09T12:55:37.435Z,22.79
2018-10-09T12:58:07.002Z,22.66
2018-10-09T13:00:36.605Z,22.55
2018-10-09T13:03:06.976Z,22.50
2018-10-09T13:05:36.533Z,22.35
2018-10-09T13:08:06.216Z,22.37
2018-10-09T13:10:35.805Z,22.31
2018-10-09T13:13:06.215Z,22.29
2018-10-09T13:15:35.812Z,22.33
2018-10-09T13:18:05.342Z,22.32
2018-10-09T13:20:34.999Z,22.31
2018-10-09T13:23:04.610Z,22.28
2018-10-09T13:25:34.065Z,22.28
2018-10-09T13:28:03.819Z,22.31
2018-10-09T13:30:33.386Z,22.30
2018-10-09T13:33:03.075Z,22.39
2018-10-09T13:35:32.609Z,22.36
2018-10-09T13:38:02.070Z,22.25
2018-10-09T13:40:31.659Z,22.26
2018-10-09T13:43:01.170Z,22.19
2018-10-09T13:45:30.744Z,22.10
2018-10-09T13:48:00.908Z,21.99
2018-10-09T13:50:30.453Z,21.93
2018-10-09T13:53:00.311Z,21.85
2018-10-09T13:55:29.744Z,21.71
2018-10-09T13:57:59.481Z,21.57
2018-10-09T14:00:29.006Z,21.45
2018-10-09T14:02:59.141Z,21.39
2018-10-09T14:05:28.734Z,21.48
2018-10-09T14:07:58.195Z,21.57
2018-10-09T14:10:27.651Z,21.68
2018-10-09T14:12:57.195Z,21.75
2018-10-09T14:15:26.857Z,21.75
2018-10-09T14:17:56.302Z,21.90
2018-10-09T14:20:25.739Z,21.99
2018-10-09T14:22:55.277Z,22.03
2018-10-09T14:25:24.627Z,22.11
2018-10-09T14:27:54.594Z,22.00
2018-10-09T14:30:24.134Z,21.81
2018-10-09T14:32:53.564Z,21.69
2018-10-09T14:35:23.000Z,21.55
2018-10-09T14:37:52.604Z,21.44
2018-10-09T14:40:22.260Z,21.40
2018-10-09T14:42:52.293Z,21.30
2018-10-09T14:45:21.680Z,21.22
2018-10-09T14:47:51.512Z,21.16
2018-10-09T14:50:21.106Z,21.13
2018-10-09T14:52:50.683Z,21.17
2018-10-09T14:55:20.129Z,21.21
2018-10-09T14:57:49.569Z,21.19
2018-10-09T15:00:18.997Z,21.07
2018-10-09T15:02:48.501Z,20.98
2018-10-09T15:05:18.084Z,20.95
2018-10-09T15:07:47.831Z,20.88
2018-10-09T15:10:17.465Z,20.82
2018-10-09T15:12:47.175Z,20.72
2018-10-09T15:15:16.568Z,20.64
2018-10-09T15:17:46.048Z,20.50
2018-10-09T15:20:15.510Z,20.36
2018-10-09T15:22:44.964Z,20.17
2018-10-09T15:25:14.403Z,19.97
2018-10-09T15:27:43.893Z,19.77
2018-10-09T15:30:13.571Z,19.60
2018-10-09T15:32:43.044Z,19.44
2018-10-09T15:35:12.778Z,19.24
2018-10-09T15:37:42.216Z,19.03
2018-10-09T15:40:11.742Z,18.80
2018-10-09T15:42:41.324Z,18.61
2018-10-09T15:45:10.794Z,18.46
2018-10-09T15:47:40.327Z,18.31
2018-10-09T15:50:09.864Z,18.15
2018-10-09T15:52:39.557Z,17.95
2018-10-09T15:55:31.252Z,17.78
2018-10-09T15:58:22.843Z,17.59
2018-10-09T16:01:09.640Z,17.38
2018-10-09T16:04:03.383Z,17.25
2018-10-09T16:06:49.080Z,17.12
2018-10-09T16:09:38.520Z,16.89
2018-10-09T16:12:22.718Z,16.71
2018-10-09T16:15:06.661Z,16.56
2018-10-09T16:17:54.148Z,16.41
2018-10-09T16:20:43.376Z,16.30
2018-10-09T16:23:32.131Z,16.16
2018-10-09T16:26:02.676Z,16.01
2018-10-09T16:28:32.255Z,15.82
2018-10-09T16:31:01.636Z,15.71
2018-10-09T16:33:31.213Z,15.61
2018-10-09T16:36:00.694Z,15.50
2018-10-09T16:38:30.184Z,15.36
2018-10-09T16:40:59.713Z,15.27
2018-10-09T16:43:29.392Z,15.15
2018-10-09T16:45:58.865Z,14.96
2018-10-09T16:48:28.399Z,14.78
2018-10-09T16:50:57.872Z,14.68
2018-10-09T16:53:27.580Z,14.57
2018-10-09T16:55:57.163Z,14.52
2018-10-09T16:58:26.744Z,14.42
2018-10-09T17:00:56.253Z,14.33
2018-10-09T17:03:25.804Z,14.24
2018-10-09T17:05:55.281Z,14.19
2018-10-09T17:08:24.818Z,14.10
2018-10-09T17:10:54.201Z,14.08
2018-10-09T17:13:23.754Z,14.03
2018-10-09T17:15:53.280Z,14.01
2018-10-09T17:18:22.847Z,13.91
2018-10-09T17:20:52.154Z,13.85
2018-10-09T17:23:28.133Z,13.83
2018-10-09T17:25:58.880Z,13.82
2018-10-09T17:28:28.567Z,13.82
2018-10-09T17:30:58.627Z,13.84
2018-10-09T17:33:28.342Z,13.92
2018-10-09T17:35:57.714Z,13.88
2018-10-09T17:38:27.247Z,13.77
2018-10-09T17:40:56.847Z,13.64
2018-10-09T17:43:26.349Z,13.59
2018-10-09T17:45:55.926Z,13.59
2018-10-09T17:48:25.442Z,13.58
2018-10-09T17:50:54.907Z,13.59
2018-10-09T17:53:24.476Z,13.55
2018-10-09T17:55:53.989Z,13.52
2018-10-09T17:58:23.766Z,13.54
2018-10-09T18:00:53.476Z,13.55
2018-10-09T18:03:23.919Z,13.58
2018-10-09T18:05:53.630Z,13.62
2018-10-09T18:08:25.570Z,13.60
2018-10-09T18:11:05.207Z,13.52
2018-10-09T18:14:04.401Z,13.43
2018-10-09T18:19:57.251Z,13.15
2018-10-09T18:22:43.724Z,13.09
2018-10-09T18:28:48.593Z,12.94
2018-10-09T18:31:30.839Z,12.78
2018-10-09T18:34:16.705Z,12.66
2018-10-09T18:36:56.014Z,12.69
2018-10-09T18:39:38.876Z,12.69
2018-10-09T18:42:20.246Z,12.63
2018-10-09T18:45:01.960Z,12.61
2018-10-09T18:47:50.151Z,12.66
2018-10-09T18:50:29.038Z,12.69
2018-10-09T18:53:04.548Z,12.67
2018-10-09T18:55:34.219Z,12.60
2018-10-09T18:58:04.012Z,12.53
2018-10-09T19:00:33.596Z,12.47
2018-10-09T19:03:03.259Z,12.40
2018-10-09T19:05:33.061Z,12.29
2018-10-09T19:08:02.609Z,12.25
2018-10-09T19:10:32.255Z,12.28
2018-10-09T19:13:01.765Z,12.27
2018-10-09T19:15:32.336Z,12.24
2018-10-09T19:18:01.901Z,12.17
2018-10-09T19:20:31.892Z,12.11
2018-10-09T19:23:01.900Z,12.06
2018-10-09T19:25:31.396Z,11.99
2018-10-09T19:28:01.122Z,11.92
2018-10-09T19:30:30.929Z,11.80
2018-10-09T19:33:00.634Z,11.76
2018-10-09T19:35:30.418Z,11.71
2018-10-09T19:38:00.184Z,11.67
2018-10-09T19:40:29.870Z,11.60
2018-10-09T19:42:59.526Z,11.54
2018-10-09T19:45:29.249Z,11.45
2018-10-09T19:47:58.630Z,11.43
2018-10-09T19:50:28.305Z,11.52
2018-10-09T19:52:57.954Z,11.64
2018-10-09T19:55:27.572Z,11.64
2018-10-09T19:57:57.258Z,11.67
2018-10-09T20:00:26.865Z,11.61
2018-10-09T20:02:56.516Z,11.56
2018-10-09T20:05:26.244Z,11.46
2018-10-09T20:07:55.716Z,11.41
2018-10-09T20:10:25.499Z,11.30
2018-10-09T20:12:54.871Z,11.23
2018-10-09T20:15:24.481Z,11.16
2018-10-09T20:17:54.079Z,11.25
2018-10-09T20:20:23.511Z,11.29
2018-10-09T20:22:53.045Z,11.30
2018-10-09T20:25:22.846Z,11.35
2018-10-09T20:27:52.249Z,11.37
2018-10-09T20:30:21.910Z,11.31
2018-10-09T20:32:51.406Z,11.23
2018-10-09T20:35:21.154Z,11.09
2018-10-09T20:37:50.721Z,10.98
2018-10-09T20:40:20.398Z,10.95
2018-10-09T20:42:49.972Z,10.93
2018-10-09T20:45:19.692Z,10.93
2018-10-09T20:47:49.509Z,10.89
2018-10-09T20:50:19.535Z,10.83
2018-10-09T20:52:49.440Z,10.77
2018-10-09T20:55:19.445Z,10.70
2018-10-09T20:57:49.295Z,10.62
2018-10-09T21:00:19.688Z,10.61
2018-10-09T21:02:49.214Z,10.62
2018-10-09T21:05:18.942Z,10.65
2018-10-09T21:07:48.642Z,10.72
2018-10-09T21:10:18.304Z,10.72
2018-10-09T21:12:47.959Z,10.72
2018-10-09T21:15:17.584Z,10.63
2018-10-09T21:17:47.559Z,10.51
2018-10-09T21:20:17.108Z,10.42
2018-10-09T21:22:46.583Z,10.33
2018-10-09T21:25:16.325Z,10.26
2018-10-09T21:27:45.782Z,10.22
2018-10-09T21:30:15.676Z,10.21
2018-10-09T21:32:45.173Z,10.23
2018-10-09T21:35:14.705Z,10.18
2018-10-09T21:37:44.169Z,10.20
2018-10-09T21:40:13.687Z,10.16
2018-10-09T21:42:43.338Z,10.07
2018-10-09T21:45:12.813Z,10.03
2018-10-09T21:47:47.418Z,10.02
2018-10-09T21:50:17.530Z,10.02
2018-10-09T21:52:47.196Z,10.10
2018-10-09T21:55:16.939Z,10.16
2018-10-09T21:57:46.386Z,10.14
2018-10-09T22:00:16.506Z,10.08
2018-10-09T22:02:45.973Z,10.15
2018-10-09T22:05:16.480Z,10.23
2018-10-09T22:07:46.086Z,10.33
2018-10-09T22:10:15.782Z,10.37
2018-10-09T22:12:45.443Z,10.36
2018-10-09T22:15:15.047Z,10.26
2018-10-09T22:17:44.783Z,10.14
2018-10-09T22:20:15.035Z,10.01
2018-10-09T22:22:44.524Z,9.90
2018-10-09T22:25:14.091Z,9.83
2018-10-09T22:27:43.686Z,9.85
2018-10-09T22:30:13.356Z,9.91
2018-10-09T22:32:43.158Z,9.99
2018-10-09T22:35:13.147Z,9.96
2018-10-09T22:37:42.707Z,9.97
2018-10-09T22:40:12.298Z,9.99
2018-10-09T22:42:41.921Z,10.01
2018-10-09T22:45:11.524Z,10.03
2018-10-09T22:47:41.757Z,9.94
2018-10-09T22:50:11.522Z,9.80
2018-10-09T22:52:41.119Z,9.74
2018-10-09T22:55:10.726Z,9.78
2018-10-09T22:57:40.341Z,9.81
2018-10-09T23:00:09.877Z,9.76
2018-10-09T23:02:39.488Z,9.69
2018-10-09T23:05:09.269Z,9.65
2018-10-09T23:07:38.835Z,9.65
2018-10-09T23:10:08.636Z,9.62
2018-10-09T23:12:38.849Z,9.58
2018-10-09T23:15:09.571Z,9.54
2018-10-09T23:17:39.031Z,9.49
2018-10-09T23:20:09.109Z,9.50
2018-10-09T23:22:38.545Z,9.54
2018-10-09T23:25:08.002Z,9.59
2018-10-09T23:27:38.152Z,9.56
2018-10-09T23:30:08.154Z,9.58
2018-10-09T23:32:37.837Z,9.62
2018-10-09T23:35:07.368Z,9.65
2018-10-09T23:37:36.782Z,9.66
2018-10-09T23:40:06.344Z,9.64
2018-10-09T23:42:36.024Z,9.74
2018-10-09T23:45:05.602Z,9.82
2018-10-09T23:47:35.489Z,9.81
2018-10-09T23:50:05.286Z,9.75
2018-10-09T23:52:35.348Z,9.66
2018-10-09T23:55:05.098Z,9.64
2018-10-09T23:57:34.932Z,9.60
